createdAt,value
2019-02-18T00:00:59.590Z,1.80
2019-02-18T00:02:12.822Z,1.98
2019-02-18T00:03:26.049Z,1.70
2019-02-18T00:04:39.277Z,1.62
2019-02-18T00:05:52.493Z,2.20
2019-02-18T00:07:14.172Z,1.75
2019-02-18T00:08:20.675Z,2.10
2019-02-18T00:09:33.890Z,2.42
2019-02-18T00:10:47.110Z,2.08
2019-02-18T00:12:00.369Z,1.95
2019-02-18T00:13:13.601Z,2.08
2019-02-18T00:14:27.085Z,2.10
2019-02-18T00:15:40.302Z,2.17
2019-02-18T00:16:53.530Z,2.17
2019-02-18T00:18:06.770Z,1.65
2019-02-18T00:19:19.993Z,2.42
2019-02-18T00:20:33.228Z,1.90
2019-02-18T00:21:46.436Z,2.25
2019-02-18T00:22:59.656Z,2.15
2019-02-18T00:24:12.887Z,2.00
2019-02-18T00:25:26.102Z,1.87
2019-02-18T00:26:39.322Z,2.00
2019-02-18T00:27:52.538Z,2.02
2019-02-18T00:29:05.776Z,1.95
2019-02-18T00:30:19.719Z,1.92
2019-02-18T00:31:32.942Z,1.80
2019-02-18T00:32:46.167Z,1.90
2019-02-18T00:33:59.405Z,1.90
2019-02-18T00:35:12.641Z,2.47
2019-02-18T00:36:25.865Z,2.40
2019-02-18T00:37:39.091Z,2.10
2019-02-18T00:38:52.314Z,2.27
2019-02-18T00:40:07.885Z,2.08
2019-02-18T00:41:21.104Z,2.45
2019-02-18T00:42:35.046Z,2.25
2019-02-18T00:43:48.274Z,2.25
2019-02-18T00:45:01.496Z,1.92
2019-02-18T00:46:14.721Z,2.47
2019-02-18T00:47:27.962Z,2.15
2019-02-18T00:48:41.233Z,1.90
2019-02-18T00:49:54.461Z,2.05
2019-02-18T00:51:07.699Z,1.90
2019-02-18T00:52:20.924Z,2.33
2019-02-18T00:53:34.141Z,2.15
2019-02-18T00:54:47.370Z,2.12
2019-02-18T00:56:00.615Z,2.47
2019-02-18T00:57:13.837Z,1.70
2019-02-18T00:58:27.053Z,2.15
2019-02-18T00:59:40.278Z,2.17
2019-02-18T01:00:55.138Z,2.15
2019-02-18T01:02:08.374Z,2.50
2019-02-18T01:03:21.626Z,2.35
2019-02-18T01:04:34.846Z,2.35
2019-02-18T01:05:48.060Z,1.90
2019-02-18T01:07:01.294Z,2.02
2019-02-18T01:08:14.517Z,2.05
2019-02-18T01:09:27.742Z,1.80
2019-02-18T01:10:40.970Z,2.67
2019-02-18T01:11:54.187Z,2.20
2019-02-18T01:13:07.430Z,1.77
2019-02-18T01:14:20.641Z,2.20
2019-02-18T01:15:33.878Z,1.95
2019-02-18T01:16:47.093Z,2.00
2019-02-18T01:18:00.318Z,1.87
2019-02-18T01:19:13.550Z,2.00
2019-02-18T01:20:26.774Z,1.62
2019-02-18T01:21:39.994Z,2.15
2019-02-18T01:22:53.214Z,2.20
2019-02-18T01:24:06.446Z,1.70
2019-02-18T01:25:19.661Z,2.12
2019-02-18T01:26:32.882Z,2.10
2019-02-18T01:27:46.098Z,2.02
2019-02-18T01:28:59.377Z,2.27
2019-02-18T01:30:16.195Z,2.02
2019-02-18T01:31:30.676Z,1.77
2019-02-18T01:32:43.906Z,2.50
2019-02-18T01:33:57.121Z,2.10
2019-02-18T01:35:10.363Z,1.80
2019-02-18T01:36:23.595Z,1.82
2019-02-18T01:37:45.366Z,2.10
2019-02-18T01:38:51.745Z,2.20
2019-02-18T01:40:07.809Z,1.90
2019-02-18T01:41:21.045Z,2.35
2019-02-18T01:42:34.261Z,1.90
2019-02-18T01:43:47.483Z,1.92
2019-02-18T01:45:00.701Z,1.70
2019-02-18T01:46:13.928Z,2.08
2019-02-18T01:47:27.161Z,2.40
2019-02-18T01:48:40.378Z,2.10
2019-02-18T01:49:53.601Z,2.37
2019-02-18T01:51:06.833Z,1.90
2019-02-18T01:52:20.050Z,2.15
2019-02-18T01:53:33.273Z,2.30
2019-02-18T01:54:46.501Z,2.17
2019-02-18T01:55:59.717Z,2.00
2019-02-18T01:57:12.938Z,2.30
2019-02-18T01:58:26.178Z,2.45
2019-02-18T01:59:39.409Z,2.35
2019-02-18T02:00:52.634Z,2.22
2019-02-18T02:02:06.106Z,2.35
2019-02-18T02:03:19.335Z,2.25
2019-02-18T02:04:32.610Z,2.00
2019-02-18T02:05:45.875Z,2.47
2019-02-18T02:06:59.110Z,2.42
2019-02-18T02:08:12.323Z,2.00
2019-02-18T02:09:25.559Z,2.10
2019-02-18T02:10:38.786Z,2.00
2019-02-18T02:11:52.077Z,2.40
2019-02-18T02:13:28.066Z,2.37
2019-02-18T02:14:41.306Z,2.10
2019-02-18T02:15:54.590Z,2.50
2019-02-18T02:17:07.821Z,2.40
2019-02-18T02:18:21.041Z,2.33
2019-02-18T02:19:34.263Z,2.10
2019-02-18T02:20:47.952Z,2.17
2019-02-18T02:22:01.180Z,2.20
2019-02-18T02:23:14.397Z,1.80
2019-02-18T02:24:27.626Z,2.37
2019-02-18T02:25:40.903Z,2.08
2019-02-18T02:26:54.149Z,2.25
2019-02-18T02:28:07.424Z,2.33
2019-02-18T02:29:20.690Z,2.90
2019-02-18T02:30:33.916Z,1.80
2019-02-18T02:31:47.141Z,1.80
2019-02-18T02:33:00.377Z,1.95
2019-02-18T02:34:13.611Z,2.02
2019-02-18T02:35:26.839Z,2.12
2019-02-18T02:36:40.309Z,2.25
2019-02-18T02:37:53.534Z,2.08
2019-02-18T02:39:06.842Z,2.10
2019-02-18T02:40:21.325Z,2.37
2019-02-18T02:41:34.548Z,2.87
2019-02-18T02:42:47.783Z,2.00
2019-02-18T02:44:01.242Z,2.58
2019-02-18T02:45:14.460Z,2.10
2019-02-18T02:46:27.673Z,2.22
2019-02-18T02:47:40.903Z,2.12
2019-02-18T02:48:54.133Z,1.90
2019-02-18T02:50:07.797Z,2.95
2019-02-18T02:51:21.769Z,2.22
2019-02-18T02:52:34.986Z,2.00
2019-02-18T02:53:48.218Z,2.12
2019-02-18T02:55:01.445Z,1.95
2019-02-18T02:56:14.666Z,2.35
2019-02-18T02:57:27.886Z,1.92
2019-02-18T02:58:41.124Z,2.12
2019-02-18T02:59:54.347Z,2.30
2019-02-18T03:01:07.572Z,2.27
2019-02-18T03:02:20.802Z,2.08
2019-02-18T03:03:34.030Z,2.17
2019-02-18T03:04:47.248Z,2.12
2019-02-18T03:06:00.470Z,2.20
2019-02-18T03:07:14.162Z,1.82
2019-02-18T03:08:27.384Z,1.82
2019-02-18T03:09:40.601Z,2.92
2019-02-18T03:10:53.841Z,3.10
2019-02-18T03:12:07.068Z,2.42
2019-02-18T03:13:20.295Z,2.55
2019-02-18T03:14:33.520Z,2.27
2019-02-18T03:15:46.749Z,2.17
2019-02-18T03:16:59.975Z,2.60
2019-02-18T03:18:13.208Z,2.37
2019-02-18T03:19:26.430Z,2.42
2019-02-18T03:20:39.653Z,2.77
2019-02-18T03:21:52.887Z,2.65
2019-02-18T03:23:06.121Z,2.22
2019-02-18T03:24:19.354Z,2.33
2019-02-18T03:25:32.854Z,2.85
2019-02-18T03:26:46.548Z,2.58
2019-02-18T03:28:29.326Z,2.47
2019-02-18T03:29:54.377Z,2.27
2019-02-18T03:31:13.524Z,2.00
2019-02-18T03:32:26.754Z,2.15
2019-02-18T03:33:48.772Z,2.33
2019-02-18T03:35:02.036Z,2.30
2019-02-18T03:36:15.258Z,2.45
2019-02-18T03:37:28.485Z,2.47
2019-02-18T03:38:41.718Z,2.67
2019-02-18T03:39:54.943Z,2.58
2019-02-18T03:41:08.160Z,2.62
2019-02-18T03:42:21.381Z,3.52
2019-02-18T03:43:34.611Z,3.25
2019-02-18T03:44:47.841Z,2.83
2019-02-18T03:46:01.075Z,2.65
2019-02-18T03:47:14.301Z,2.12
2019-02-18T03:48:27.520Z,2.33
2019-02-18T03:49:40.749Z,2.20
2019-02-18T03:50:53.997Z,2.80
2019-02-18T03:52:07.205Z,2.35
2019-02-18T03:53:20.422Z,3.05
2019-02-18T03:54:33.728Z,2.90
2019-02-18T03:55:47.026Z,3.00
2019-02-18T03:57:00.243Z,3.05
2019-02-18T03:58:13.457Z,2.95
2019-02-18T03:59:26.684Z,2.90
2019-02-18T04:00:39.901Z,3.25
2019-02-18T04:01:53.131Z,3.35
2019-02-18T04:03:06.351Z,3.52
2019-02-18T04:04:19.570Z,3.25
2019-02-18T04:05:32.794Z,2.75
2019-02-18T04:06:46.009Z,2.95
2019-02-18T04:07:59.254Z,4.00
2019-02-18T04:09:12.478Z,3.27
2019-02-18T04:10:25.702Z,3.33
2019-02-18T04:11:38.926Z,2.87
2019-02-18T04:12:52.146Z,3.33
2019-02-18T04:14:05.377Z,3.25
2019-02-18T04:15:18.675Z,3.45
2019-02-18T04:16:31.887Z,3.65
2019-02-18T04:17:45.106Z,3.65
2019-02-18T04:18:58.371Z,3.30
2019-02-18T04:20:11.584Z,3.08
2019-02-18T04:21:24.798Z,2.98
2019-02-18T04:22:38.029Z,2.95
2019-02-18T04:23:51.250Z,3.27
2019-02-18T04:25:05.741Z,3.22
2019-02-18T04:26:18.955Z,3.05
2019-02-18T04:27:32.166Z,3.60
2019-02-18T04:28:45.383Z,2.87
2019-02-18T04:29:58.602Z,3.08
2019-02-18T04:31:11.862Z,2.95
2019-02-18T04:32:25.092Z,3.77
2019-02-18T04:33:38.309Z,3.65
2019-02-18T04:34:51.553Z,3.67
2019-02-18T04:36:04.886Z,3.80
2019-02-18T04:37:18.085Z,4.05
2019-02-18T04:38:31.318Z,3.90
2019-02-18T04:39:44.547Z,3.92
2019-02-18T04:40:57.768Z,5.60
2019-02-18T04:42:11.019Z,4.00
2019-02-18T04:43:24.250Z,4.65
2019-02-18T04:44:37.479Z,4.60
2019-02-18T04:45:51.795Z,4.75
2019-02-18T04:47:05.047Z,5.97
2019-02-18T04:48:18.265Z,3.95
2019-02-18T04:49:31.482Z,5.55
2019-02-18T04:50:44.708Z,4.87
2019-02-18T04:51:57.925Z,5.78
2019-02-18T04:53:11.184Z,4.50
2019-02-18T04:54:24.407Z,5.03
2019-02-18T04:55:38.350Z,4.58
2019-02-18T04:56:51.663Z,4.53
2019-02-18T04:58:06.210Z,4.65
2019-02-18T04:59:19.599Z,3.90
2019-02-18T05:00:32.823Z,4.70
2019-02-18T05:01:46.052Z,4.37
2019-02-18T05:02:59.274Z,4.40
2019-02-18T05:04:14.189Z,5.87
2019-02-18T05:05:27.502Z,4.55
2019-02-18T05:06:40.746Z,4.33
2019-02-18T05:07:54.042Z,3.85
2019-02-18T05:09:07.265Z,4.05
2019-02-18T05:10:22.118Z,4.00
2019-02-18T05:11:35.398Z,3.90
2019-02-18T05:12:48.638Z,4.05
2019-02-18T05:14:01.853Z,3.95
2019-02-18T05:15:15.066Z,3.20
2019-02-18T05:16:28.290Z,4.42
2019-02-18T05:17:41.519Z,4.28
2019-02-18T05:18:54.753Z,3.80
2019-02-18T05:20:08.612Z,5.08
2019-02-18T05:21:21.841Z,3.20
2019-02-18T05:22:35.059Z,3.47
2019-02-18T05:23:48.298Z,4.25
2019-02-18T05:25:01.524Z,3.12
2019-02-18T05:26:14.771Z,3.50
2019-02-18T05:27:33.256Z,4.28
2019-02-18T05:28:42.987Z,4.03
2019-02-18T05:29:56.213Z,3.60
2019-02-18T05:31:09.451Z,3.70
2019-02-18T05:32:22.666Z,4.25
2019-02-18T05:33:35.890Z,4.03
2019-02-18T05:34:49.823Z,4.17
2019-02-18T05:36:03.031Z,4.33
2019-02-18T05:37:16.264Z,4.47
2019-02-18T05:38:29.495Z,4.37
2019-02-18T05:39:42.717Z,3.90
2019-02-18T05:40:55.950Z,4.50
2019-02-18T05:42:09.186Z,4.50
2019-02-18T05:43:22.411Z,4.83
2019-02-18T05:44:35.697Z,4.37
2019-02-18T05:45:49.394Z,4.55
2019-02-18T05:47:02.619Z,4.67
2019-02-18T05:48:16.074Z,4.67
2019-02-18T05:49:29.316Z,4.12
2019-02-18T05:50:42.540Z,4.55
2019-02-18T05:51:55.771Z,4.25
2019-02-18T05:53:08.993Z,4.28
2019-02-18T05:54:22.231Z,3.27
2019-02-18T05:55:35.448Z,4.22
2019-02-18T05:56:48.762Z,4.15
2019-02-18T05:58:02.002Z,4.05
2019-02-18T05:59:15.245Z,4.55
2019-02-18T06:00:28.544Z,5.53
2019-02-18T06:01:41.809Z,4.40
2019-02-18T06:02:55.060Z,6.17
2019-02-18T06:04:08.292Z,4.47
2019-02-18T06:05:21.522Z,4.83
2019-02-18T06:06:34.823Z,5.50
2019-02-18T06:07:48.049Z,5.83
2019-02-18T06:09:01.284Z,5.72
2019-02-18T06:10:16.993Z,5.67
2019-02-18T06:11:29.447Z,4.90
2019-02-18T06:12:42.670Z,4.62
2019-02-18T06:13:55.910Z,5.20
2019-02-18T06:15:09.816Z,4.78
2019-02-18T06:16:23.273Z,4.47
2019-02-18T06:17:36.499Z,5.85
2019-02-18T06:18:50.290Z,4.75
2019-02-18T06:20:04.155Z,4.58
2019-02-18T06:21:17.378Z,4.83
2019-02-18T06:22:30.666Z,5.08
2019-02-18T06:23:44.118Z,3.95
2019-02-18T06:24:57.357Z,4.78
2019-02-18T06:26:11.619Z,5.17
2019-02-18T06:27:24.914Z,4.62
2019-02-18T06:28:38.133Z,5.30
2019-02-18T06:29:51.372Z,4.70
2019-02-18T06:31:04.606Z,4.90
2019-02-18T06:32:17.837Z,4.20
2019-02-18T06:33:31.062Z,5.53
2019-02-18T06:34:44.294Z,5.47
2019-02-18T06:35:57.590Z,4.72
2019-02-18T06:37:10.818Z,4.97
2019-02-18T06:38:24.111Z,4.87
2019-02-18T06:39:41.402Z,4.90
2019-02-18T06:40:52.286Z,6.15
2019-02-18T06:42:05.512Z,4.95
2019-02-18T06:43:18.745Z,4.78
2019-02-18T06:44:36.318Z,5.75
2019-02-18T06:45:56.847Z,5.45
2019-02-18T06:47:10.449Z,5.85
2019-02-18T06:48:25.309Z,4.60
2019-02-18T06:49:38.549Z,5.20
2019-02-18T06:50:51.779Z,4.92
2019-02-18T06:52:05.003Z,5.03
2019-02-18T06:53:18.233Z,5.47
2019-02-18T06:54:31.466Z,5.17
2019-02-18T06:55:44.701Z,4.37
2019-02-18T06:57:08.495Z,4.50
2019-02-18T06:58:25.769Z,4.62
2019-02-18T06:59:40.633Z,4.75
2019-02-18T07:01:07.534Z,4.78
2019-02-18T07:02:28.099Z,6.12
2019-02-18T07:03:42.976Z,5.08
2019-02-18T07:05:00.541Z,5.05
2019-02-18T07:06:15.422Z,5.00
2019-02-18T07:07:33.254Z,4.33
2019-02-18T07:09:04.104Z,4.20
2019-02-18T07:10:25.273Z,5.15
2019-02-18T07:11:40.227Z,5.30
2019-02-18T07:12:53.442Z,4.92
2019-02-18T07:14:06.664Z,4.70
2019-02-18T07:15:20.372Z,4.83
2019-02-18T07:16:33.578Z,4.35
2019-02-18T07:17:46.809Z,4.80
2019-02-18T07:19:00.033Z,5.45
2019-02-18T07:20:13.265Z,5.08
2019-02-18T07:21:26.491Z,5.42
2019-02-18T07:22:39.719Z,4.78
2019-02-18T07:23:52.957Z,5.12
2019-02-18T07:25:08.177Z,4.15
2019-02-18T07:26:21.398Z,5.10
2019-02-18T07:27:34.628Z,5.60
2019-02-18T07:28:47.859Z,4.97
2019-02-18T07:30:01.086Z,4.55
2019-02-18T07:31:14.305Z,4.35
2019-02-18T07:32:27.538Z,4.37
2019-02-18T07:33:40.774Z,5.35
2019-02-18T07:34:54.025Z,4.95
2019-02-18T07:36:07.306Z,4.53
2019-02-18T07:37:20.530Z,5.22
2019-02-18T07:38:33.759Z,4.00
2019-02-18T07:39:46.996Z,4.20
2019-02-18T07:41:00.214Z,3.98
2019-02-18T07:42:13.434Z,3.42
2019-02-18T07:43:26.658Z,4.28
2019-02-18T07:44:39.901Z,3.77
2019-02-18T07:45:53.204Z,3.65
2019-02-18T07:47:06.426Z,3.90
2019-02-18T07:48:19.661Z,3.08
2019-02-18T07:49:32.886Z,3.45
2019-02-18T07:50:46.131Z,3.37
2019-02-18T07:51:59.342Z,3.50
2019-02-18T07:53:12.570Z,3.15
2019-02-18T07:54:25.792Z,3.10
2019-02-18T07:55:39.266Z,2.95
2019-02-18T07:56:52.494Z,2.90
2019-02-18T07:58:05.717Z,3.08
2019-02-18T07:59:18.950Z,4.00
2019-02-18T08:00:32.175Z,3.00
2019-02-18T08:01:45.394Z,2.92
2019-02-18T08:02:58.624Z,3.58
2019-02-18T08:04:11.867Z,3.95
2019-02-18T08:05:25.086Z,3.85
2019-02-18T08:06:38.322Z,3.95
2019-02-18T08:07:51.795Z,3.15
2019-02-18T08:09:06.234Z,2.98
2019-02-18T08:10:19.447Z,3.17
2019-02-18T08:11:32.671Z,3.37
2019-02-18T08:12:45.906Z,3.67
2019-02-18T08:13:59.137Z,3.75
2019-02-18T08:15:13.986Z,3.90
2019-02-18T08:16:27.219Z,3.87
2019-02-18T08:17:40.448Z,3.40
2019-02-18T08:18:55.430Z,3.90
2019-02-18T08:20:10.546Z,3.80
2019-02-18T08:21:23.773Z,3.40
2019-02-18T08:22:39.208Z,3.90
2019-02-18T08:23:59.582Z,3.80
2019-02-18T08:25:10.254Z,15.50
2019-02-18T08:26:25.129Z,10.13
2019-02-18T08:27:38.366Z,10.25
2019-02-18T08:28:51.581Z,8.00
2019-02-18T08:30:09.116Z,7.97
2019-02-18T08:31:22.350Z,12.13
2019-02-18T08:32:35.574Z,7.10
2019-02-18T08:33:48.806Z,7.80
2019-02-18T08:35:02.030Z,9.88
2019-02-18T08:36:18.165Z,15.00
2019-02-18T08:37:31.410Z,10.43
2019-02-18T08:38:45.113Z,13.22
2019-02-18T08:39:58.341Z,5.25
2019-02-18T08:41:11.560Z,4.03
2019-02-18T08:42:24.781Z,4.85
2019-02-18T08:43:38.032Z,3.45
2019-02-18T08:44:51.566Z,4.75
2019-02-18T08:46:04.793Z,3.65
2019-02-18T08:47:18.019Z,3.75
2019-02-18T08:48:31.249Z,3.37
2019-02-18T08:49:44.481Z,3.45
2019-02-18T08:50:59.813Z,3.50
2019-02-18T08:52:13.091Z,4.45
2019-02-18T08:53:26.318Z,3.12
2019-02-18T08:54:42.663Z,4.00
2019-02-18T08:55:55.893Z,4.03
2019-02-18T08:57:09.110Z,3.17
2019-02-18T08:58:22.365Z,3.67
2019-02-18T08:59:35.603Z,3.90
2019-02-18T09:00:48.823Z,3.33
2019-02-18T09:02:02.058Z,2.80
2019-02-18T09:03:15.274Z,7.72
2019-02-18T09:04:28.567Z,4.75
2019-02-18T09:05:41.792Z,5.58
2019-02-18T09:06:56.261Z,6.35
2019-02-18T09:08:09.482Z,7.58
2019-02-18T09:09:22.715Z,5.65
2019-02-18T09:10:36.185Z,4.35
2019-02-18T09:11:49.409Z,3.55
2019-02-18T09:13:02.666Z,4.03
2019-02-18T09:14:15.921Z,6.83
2019-02-18T09:15:29.143Z,4.95
2019-02-18T09:16:42.395Z,4.60
2019-02-18T09:17:55.610Z,3.58
2019-02-18T09:19:08.846Z,4.62
2019-02-18T09:20:22.069Z,4.62
2019-02-18T09:21:35.561Z,5.17
2019-02-18T09:22:53.077Z,3.17
2019-02-18T09:24:13.982Z,4.25
2019-02-18T09:25:31.546Z,4.30
2019-02-18T09:26:44.789Z,5.15
2019-02-18T09:27:58.018Z,7.58
2019-02-18T09:29:11.246Z,5.95
2019-02-18T09:30:26.130Z,4.65
2019-02-18T09:31:39.371Z,5.25
2019-02-18T09:32:52.600Z,8.98
2019-02-18T09:34:05.822Z,3.52
2019-02-18T09:35:19.045Z,3.12
2019-02-18T09:36:32.741Z,3.87
2019-02-18T09:37:45.980Z,6.90
2019-02-18T09:38:59.197Z,3.35
2019-02-18T09:40:12.431Z,4.03
2019-02-18T09:41:25.668Z,3.30
2019-02-18T09:42:38.895Z,3.08
2019-02-18T09:43:52.123Z,3.08
2019-02-18T09:45:08.477Z,3.67
2019-02-18T09:46:21.705Z,3.55
2019-02-18T09:47:34.946Z,2.50
2019-02-18T09:48:49.358Z,2.65
2019-02-18T09:50:02.679Z,8.25
2019-02-18T09:51:15.902Z,6.08
2019-02-18T09:52:29.121Z,2.17
2019-02-18T09:53:42.362Z,2.75
2019-02-18T09:54:55.596Z,2.37
2019-02-18T09:56:08.813Z,2.00
2019-02-18T09:57:22.072Z,2.00
2019-02-18T09:58:35.350Z,2.00
2019-02-18T09:59:48.810Z,2.08
2019-02-18T10:01:02.086Z,2.20
2019-02-18T10:02:15.334Z,2.15
2019-02-18T10:03:32.154Z,2.25
2019-02-18T10:04:44.232Z,2.25
2019-02-18T10:05:57.462Z,1.70
2019-02-18T10:07:10.685Z,2.25
2019-02-18T10:08:23.923Z,1.80
2019-02-18T10:09:37.158Z,2.17
2019-02-18T10:10:55.920Z,1.85
2019-02-18T10:12:05.334Z,1.57
2019-02-18T10:13:18.573Z,1.57
2019-02-18T10:14:32.265Z,1.72
2019-02-18T10:15:45.497Z,1.77
2019-02-18T10:16:58.963Z,2.02
2019-02-18T10:18:12.193Z,1.90
2019-02-18T10:19:25.417Z,3.25
2019-02-18T10:20:38.658Z,2.33
2019-02-18T10:21:51.890Z,1.92
2019-02-18T10:23:05.122Z,5.50
2019-02-18T10:24:18.346Z,3.02
2019-02-18T10:25:31.581Z,2.15
2019-02-18T10:26:44.810Z,2.50
2019-02-18T10:27:58.031Z,2.47
2019-02-18T10:29:11.249Z,2.30
2019-02-18T10:30:24.493Z,2.75
2019-02-18T10:31:37.729Z,2.65
2019-02-18T10:32:50.962Z,3.33
2019-02-18T10:34:04.207Z,3.02
2019-02-18T10:35:17.436Z,3.00
2019-02-18T10:36:30.734Z,2.92
2019-02-18T10:37:43.967Z,2.65
2019-02-18T10:38:57.189Z,2.35
2019-02-18T10:40:10.671Z,2.37
2019-02-18T10:41:23.898Z,3.05
2019-02-18T10:42:37.122Z,2.40
2019-02-18T10:43:50.354Z,2.27
2019-02-18T10:45:04.357Z,2.90
2019-02-18T10:46:17.596Z,2.92
2019-02-18T10:47:30.820Z,2.87
2019-02-18T10:48:44.046Z,2.72
2019-02-18T10:49:57.277Z,2.60
2019-02-18T10:51:10.517Z,3.20
2019-02-18T10:52:23.978Z,2.33
2019-02-18T10:53:37.200Z,2.72
2019-02-18T10:54:50.509Z,2.85
2019-02-18T10:56:03.840Z,2.58
2019-02-18T10:57:17.062Z,2.60
2019-02-18T10:58:30.300Z,2.37
2019-02-18T10:59:44.800Z,2.40
2019-02-18T11:00:58.316Z,3.15
2019-02-18T11:02:11.625Z,2.92
2019-02-18T11:03:24.852Z,2.92
2019-02-18T11:04:38.117Z,3.08
2019-02-18T11:05:52.070Z,3.27
2019-02-18T11:07:05.316Z,3.30
2019-02-18T11:08:19.577Z,2.67
2019-02-18T11:09:32.813Z,2.58
2019-02-18T11:10:46.037Z,2.77
2019-02-18T11:11:59.281Z,3.35
2019-02-18T11:13:12.521Z,4.22
2019-02-18T11:14:25.749Z,4.50
2019-02-18T11:15:39.209Z,2.65
2019-02-18T11:16:52.425Z,3.20
2019-02-18T11:18:05.672Z,2.17
2019-02-18T11:19:18.909Z,2.98
2019-02-18T11:20:32.133Z,2.70
2019-02-18T11:21:45.360Z,2.60
2019-02-18T11:22:58.589Z,2.98
2019-02-18T11:24:11.822Z,2.70
2019-02-18T11:25:25.045Z,2.65
2019-02-18T11:26:38.272Z,2.70
2019-02-18T11:27:51.493Z,2.85
2019-02-18T11:29:05.002Z,2.58
2019-02-18T11:30:18.894Z,2.70
2019-02-18T11:31:32.119Z,2.55
2019-02-18T11:32:45.345Z,2.45
2019-02-18T11:33:58.586Z,5.12
2019-02-18T11:35:11.814Z,4.00
2019-02-18T11:36:25.045Z,3.62
2019-02-18T11:37:38.280Z,2.90
2019-02-18T11:38:51.513Z,2.95
2019-02-18T11:40:08.006Z,2.67
2019-02-18T11:41:27.479Z,2.85
2019-02-18T11:42:37.456Z,3.00
2019-02-18T11:43:50.890Z,2.45
2019-02-18T11:45:05.941Z,2.95
2019-02-18T11:46:19.170Z,2.87
2019-02-18T11:47:32.446Z,2.60
2019-02-18T11:48:45.682Z,2.20
2019-02-18T11:49:58.915Z,2.75
2019-02-18T11:51:12.139Z,2.90
2019-02-18T11:52:25.364Z,2.80
2019-02-18T11:53:38.583Z,2.45
2019-02-18T11:54:51.831Z,2.83
2019-02-18T11:56:05.067Z,2.98
2019-02-18T11:57:18.289Z,2.37
2019-02-18T11:58:31.518Z,2.77
2019-02-18T11:59:44.745Z,2.15
2019-02-18T12:00:57.976Z,3.10
2019-02-18T12:02:11.490Z,2.35
2019-02-18T12:03:24.702Z,3.05
2019-02-18T12:04:37.926Z,2.33
2019-02-18T12:05:51.181Z,2.40
2019-02-18T12:07:04.401Z,2.60
2019-02-18T12:08:17.631Z,2.80
2019-02-18T12:09:30.857Z,3.17
2019-02-18T12:10:44.092Z,2.47
2019-02-18T12:11:57.316Z,2.40
2019-02-18T12:13:10.616Z,2.40
2019-02-18T12:14:23.836Z,2.62
2019-02-18T12:15:37.399Z,2.05
2019-02-18T12:16:50.656Z,2.42
2019-02-18T12:18:03.885Z,2.92
2019-02-18T12:19:17.098Z,2.77
2019-02-18T12:20:30.325Z,2.75
2019-02-18T12:21:43.554Z,2.17
2019-02-18T12:22:57.058Z,2.67
2019-02-18T12:24:10.696Z,3.37
2019-02-18T12:25:23.917Z,3.17
2019-02-18T12:26:37.170Z,2.90
2019-02-18T12:27:50.393Z,3.10
2019-02-18T12:29:03.618Z,2.90
2019-02-18T12:30:17.665Z,3.30
2019-02-18T12:31:31.194Z,3.30
2019-02-18T12:32:44.431Z,3.05
2019-02-18T12:33:57.747Z,3.90
2019-02-18T12:35:11.042Z,3.08
2019-02-18T12:36:24.282Z,2.85
2019-02-18T12:37:37.521Z,3.08
2019-02-18T12:38:50.748Z,3.75
2019-02-18T12:40:06.199Z,3.37
2019-02-18T12:41:19.697Z,3.00
2019-02-18T12:42:33.001Z,3.00
2019-02-18T12:43:46.287Z,3.50
2019-02-18T12:44:59.585Z,3.70
2019-02-18T12:46:15.700Z,3.33
2019-02-18T12:48:40.281Z,3.58
2019-02-18T12:49:55.138Z,3.27
2019-02-18T12:51:08.364Z,2.77
2019-02-18T12:52:21.605Z,3.52
2019-02-18T12:53:34.817Z,2.83
2019-02-18T12:54:48.141Z,3.02
2019-02-18T12:56:01.430Z,3.08
2019-02-18T12:57:14.656Z,3.00
2019-02-18T12:58:28.132Z,3.20
2019-02-18T12:59:41.449Z,3.30
2019-02-18T13:00:54.762Z,2.62
2019-02-18T13:02:08.365Z,3.50
2019-02-18T13:03:21.780Z,4.05
2019-02-18T13:04:35.101Z,4.20
2019-02-18T13:05:48.645Z,3.17
2019-02-18T13:07:01.943Z,3.83
2019-02-18T13:08:15.242Z,3.08
2019-02-18T13:09:28.613Z,3.30
2019-02-18T13:10:41.850Z,2.20
2019-02-18T13:11:58.959Z,3.92
2019-02-18T13:13:10.505Z,3.40
2019-02-18T13:14:23.817Z,3.80
2019-02-18T13:15:37.121Z,2.92
2019-02-18T13:16:50.349Z,3.70
2019-02-18T13:24:07.182Z,4.00
2019-02-18T13:25:20.699Z,3.80
2019-02-18T13:30:16.442Z,4.25
2019-02-18T13:31:29.754Z,3.67
2019-02-18T13:32:42.988Z,3.42
2019-02-18T13:33:56.226Z,3.65
2019-02-18T13:35:09.455Z,3.90
2019-02-18T13:36:22.747Z,3.15
2019-02-18T13:37:36.230Z,3.77
2019-02-18T13:38:49.464Z,4.15
2019-02-18T13:40:03.910Z,3.22
2019-02-18T13:41:17.710Z,2.72
2019-02-18T13:42:30.939Z,3.75
2019-02-18T13:43:44.548Z,3.17
2019-02-18T13:44:57.949Z,2.98
2019-02-18T13:46:11.170Z,3.40
2019-02-18T13:47:24.386Z,2.87
2019-02-18T13:48:37.614Z,3.00
2019-02-18T13:49:51.092Z,3.20
2019-02-18T13:51:04.322Z,2.75
2019-02-18T13:52:17.546Z,2.98
2019-02-18T13:53:30.789Z,2.98
2019-02-18T13:54:44.035Z,2.55
2019-02-18T13:55:57.250Z,2.65
2019-02-18T13:57:10.545Z,2.60
2019-02-18T13:58:23.776Z,2.60
2019-02-18T13:59:37.089Z,2.87
2019-02-18T14:00:50.878Z,2.60
2019-02-18T14:02:04.096Z,3.10
2019-02-18T14:03:17.608Z,2.55
2019-02-18T14:04:30.905Z,3.20
2019-02-18T14:05:44.166Z,3.50
2019-02-18T14:06:57.393Z,3.65
2019-02-18T14:08:10.617Z,5.37
2019-02-18T14:09:23.846Z,5.12
2019-02-18T14:10:37.082Z,5.10
2019-02-18T14:11:50.309Z,4.53
2019-02-18T14:13:03.530Z,2.90
2019-02-18T14:14:16.753Z,3.15
2019-02-18T14:15:29.986Z,3.20
2019-02-18T14:16:43.221Z,3.02
2019-02-18T14:17:56.443Z,1.50
2019-02-18T14:19:10.377Z,3.12
2019-02-18T14:20:23.594Z,2.87
2019-02-18T14:21:36.823Z,3.30
2019-02-18T14:22:50.446Z,3.75
2019-02-18T14:24:03.670Z,6.58
2019-02-18T14:25:17.611Z,3.58
2019-02-18T15:25:54.006Z,3.37
2019-02-18T15:27:10.506Z,3.25
2019-02-18T15:28:23.742Z,3.22
2019-02-18T15:29:36.965Z,3.08
2019-02-18T15:30:50.199Z,3.75
2019-02-18T15:32:03.435Z,2.60
2019-02-18T15:33:16.672Z,3.12
2019-02-18T15:34:29.916Z,2.98
2019-02-18T15:35:43.141Z,2.98
2019-02-18T15:36:56.378Z,3.05
2019-02-18T15:38:09.606Z,3.40
2019-02-18T15:39:22.837Z,2.62
2019-02-18T15:40:36.138Z,3.15
2019-02-18T15:41:49.370Z,2.90
2019-02-18T15:43:02.854Z,3.02
2019-02-18T15:44:16.083Z,2.80
2019-02-18T15:45:29.581Z,2.87
2019-02-18T15:46:42.822Z,3.08
2019-02-18T15:48:01.508Z,2.85
2019-02-18T15:49:11.782Z,2.60
2019-02-18T15:50:25.012Z,2.90
2019-02-18T15:51:38.255Z,2.60
2019-02-18T15:52:51.722Z,2.72
2019-02-18T15:54:04.937Z,2.80
2019-02-18T15:55:18.167Z,3.15
2019-02-18T15:56:31.399Z,3.00
2019-02-18T15:57:44.718Z,2.85
2019-02-18T15:58:57.937Z,2.60
2019-02-18T16:00:19.995Z,3.10
2019-02-18T16:01:33.496Z,2.95
2019-02-18T16:02:46.726Z,2.87
2019-02-18T16:03:59.959Z,3.40
2019-02-18T16:05:13.180Z,3.67
2019-02-18T16:06:26.410Z,4.08
2019-02-18T16:07:39.652Z,3.30
2019-02-18T16:08:52.888Z,3.55
2019-02-18T16:10:08.150Z,3.50
2019-02-18T16:11:21.373Z,3.60
2019-02-18T16:12:34.613Z,3.45
2019-02-18T16:13:47.845Z,3.83
2019-02-18T16:15:01.084Z,3.50
2019-02-18T16:16:14.314Z,3.65
2019-02-18T16:17:27.630Z,3.80
2019-02-18T16:18:40.921Z,3.87
2019-02-18T16:19:54.425Z,3.83
2019-02-18T16:21:07.930Z,4.20
2019-02-18T16:22:21.157Z,4.22
2019-02-18T16:23:34.396Z,4.50
2019-02-18T16:24:47.628Z,4.75
2019-02-18T16:26:00.849Z,4.37
2019-02-18T16:27:14.822Z,4.20
2019-02-18T16:28:28.059Z,4.20
2019-02-18T16:29:41.288Z,4.03
2019-02-18T16:30:54.590Z,4.10
2019-02-18T16:32:07.818Z,4.40
2019-02-18T16:33:21.055Z,4.15
2019-02-18T16:34:34.285Z,3.98
2019-02-18T16:35:47.794Z,4.65
2019-02-18T16:37:01.485Z,3.52
2019-02-18T16:38:14.714Z,4.03
2019-02-18T16:39:27.947Z,4.05
2019-02-18T16:40:41.550Z,3.62
2019-02-18T16:41:54.783Z,3.47
2019-02-18T16:43:08.086Z,3.62
2019-02-18T16:44:21.324Z,3.87
2019-02-18T16:45:34.556Z,4.15
2019-02-18T16:46:48.157Z,3.83
2019-02-18T16:48:01.392Z,4.12
2019-02-18T16:49:14.629Z,4.53
2019-02-18T16:50:27.876Z,4.45
2019-02-18T16:51:41.161Z,4.12
2019-02-18T16:52:54.388Z,4.47
2019-02-18T16:54:07.861Z,4.08
2019-02-18T16:55:21.098Z,4.10
2019-02-18T16:56:35.455Z,4.20
2019-02-18T16:57:48.966Z,4.10
2019-02-18T16:59:02.211Z,4.53
2019-02-18T17:00:19.115Z,4.80
2019-02-18T17:01:32.409Z,4.20
2019-02-18T17:02:45.641Z,5.25
2019-02-18T17:03:58.879Z,5.40
2019-02-18T17:05:12.110Z,4.50
2019-02-18T17:06:25.333Z,4.67
2019-02-18T17:07:38.565Z,4.87
2019-02-18T17:08:51.811Z,4.72
2019-02-18T17:10:07.153Z,5.20
2019-02-18T17:11:20.426Z,5.05
2019-02-18T17:12:33.705Z,4.45
2019-02-18T17:13:47.314Z,4.45
2019-02-18T17:15:00.824Z,5.35
2019-02-18T17:16:14.045Z,5.30
2019-02-18T17:17:27.274Z,4.83
2019-02-18T17:18:40.506Z,5.03
2019-02-18T17:19:53.994Z,5.80
2019-02-18T17:21:07.214Z,5.47
2019-02-18T17:22:20.456Z,5.08
2019-02-18T17:23:33.682Z,5.08
2019-02-18T17:24:46.909Z,5.30
2019-02-18T17:26:00.151Z,5.40
2019-02-18T17:27:13.492Z,4.83
2019-02-18T17:28:26.785Z,5.95
2019-02-18T17:29:40.090Z,5.58
2019-02-18T17:30:53.365Z,5.72